Weather at U-Tapao International Airport

Public forecast

Using degrees Celsius for public forecast. Weather courtesy of forecast.io.

Current aviation weather report (METAR) for U-Tapao International Airport

2024/05/29 17:30 (retrieved 24 minutes ago)

VTBU 291730Z 24003KT 9999 FEW020 30/27 Q1007 NOSIG

Aviation forecast (TAF) for U-Tapao International Airport

2024/05/29 12:36 (retrieved 5 hours ago)

TAF VTBU 291100Z 2912/3012 19006KT 9999 FEW020